sensor_id;sensor_type;location;lat;lon;timestamp;P1;durP1;ratioP1;P2;durP2;ratioP2
7108;SDS011;29079;41.930;25.558;2023-02-03T00:01:37;3.25;;;2.15;;
7108;SDS011;29079;41.930;25.558;2023-02-03T00:04:10;3.85;;;2.72;;
7108;SDS011;29079;41.930;25.558;2023-02-03T00:06:44;3.30;;;2.28;;
7108;SDS011;29079;41.930;25.558;2023-02-03T00:09:19;4.63;;;2.70;;
7108;SDS011;29079;41.930;25.558;2023-02-03T00:11:54;3.25;;;2.45;;
7108;SDS011;29079;41.930;25.558;2023-02-03T00:17:01;4.00;;;2.42;;
7108;SDS011;29079;41.930;25.558;2023-02-03T00:19:35;4.03;;;2.70;;
7108;SDS011;29079;41.930;25.558;2023-02-03T00:22:08;5.00;;;3.17;;
7108;SDS011;29079;41.930;25.558;2023-02-03T00:24:43;3.05;;;2.17;;
7108;SDS011;29079;41.930;25.558;2023-02-03T00:27:16;5.22;;;3.03;;
7108;SDS011;29079;41.930;25.558;2023-02-03T00:29:49;3.92;;;2.83;;
7108;SDS011;29079;41.930;25.558;2023-02-03T00:32:23;3.67;;;2.47;;
7108;SDS011;29079;41.930;25.558;2023-02-03T00:37:30;3.63;;;2.75;;
7108;SDS011;29079;41.930;25.558;2023-02-03T00:40:05;3.15;;;2.55;;
7108;SDS011;29079;41.930;25.558;2023-02-03T00:42:39;3.65;;;2.65;;
7108;SDS011;29079;41.930;25.558;2023-02-03T00:45:12;3.67;;;2.65;;
7108;SDS011;29079;41.930;25.558;2023-02-03T00:47:45;3.75;;;2.60;;
7108;SDS011;29079;41.930;25.558;2023-02-03T00:50:19;5.65;;;2.90;;
7108;SDS011;29079;41.930;25.558;2023-02-03T00:52:52;3.92;;;2.63;;
7108;SDS011;29079;41.930;25.558;2023-02-03T00:55:27;3.83;;;2.83;;
7108;SDS011;29079;41.930;25.558;2023-02-03T00:58:01;4.35;;;2.70;;
7108;SDS011;29079;41.930;25.558;2023-02-03T01:00:34;5.45;;;3.13;;
7108;SDS011;29079;41.930;25.558;2023-02-03T01:03:07;5.18;;;3.28;;
7108;SDS011;29079;41.930;25.558;2023-02-03T01:05:41;3.70;;;2.45;;
7108;SDS011;29079;41.930;25.558;2023-02-03T01:08:15;3.45;;;2.63;;
7108;SDS011;29079;41.930;25.558;2023-02-03T01:10:49;5.53;;;2.88;;
7108;SDS011;29079;41.930;25.558;2023-02-03T01:13:23;5.80;;;3.42;;
7108;SDS011;29079;41.930;25.558;2023-02-03T01:15:57;7.93;;;4.32;;
7108;SDS011;29079;41.930;25.558;2023-02-03T01:18:30;6.18;;;3.92;;
7108;SDS011;29079;41.930;25.558;2023-02-03T01:21:04;7.80;;;3.35;;
7108;SDS011;29079;41.930;25.558;2023-02-03T01:23:39;5.00;;;3.00;;
7108;SDS011;29079;41.930;25.558;2023-02-03T01:26:14;7.55;;;3.03;;
7108;SDS011;29079;41.930;25.558;2023-02-03T01:28:49;10.02;;;3.70;;
7108;SDS011;29079;41.930;25.558;2023-02-03T01:31:24;5.93;;;3.47;;
7108;SDS011;29079;41.930;25.558;2023-02-03T01:34:00;5.18;;;3.47;;
7108;SDS011;29079;41.930;25.558;2023-02-03T01:36:34;7.63;;;4.15;;
7108;SDS011;29079;41.930;25.558;2023-02-03T01:39:07;5.28;;;3.58;;
7108;SDS011;29079;41.930;25.558;2023-02-03T01:41:43;6.82;;;3.55;;
7108;SDS011;29079;41.930;25.558;2023-02-03T01:47:15;7.38;;;4.03;;
7108;SDS011;29079;41.930;25.558;2023-02-03T01:49:55;3.90;;;3.35;;
7108;SDS011;29079;41.930;25.558;2023-02-03T01:52:41;6.05;;;3.60;;
7108;SDS011;29079;41.930;25.558;2023-02-03T01:55:18;5.78;;;3.20;;
7108;SDS011;29079;41.930;25.558;2023-02-03T01:57:56;5.20;;;3.30;;
7108;SDS011;29079;41.930;25.558;2023-02-03T02:00:33;5.57;;;3.55;;
7108;SDS011;29079;41.930;25.558;2023-02-03T02:03:07;5.25;;;3.25;;
7108;SDS011;29079;41.930;25.558;2023-02-03T02:05:42;5.72;;;3.35;;
7108;SDS011;29079;41.930;25.558;2023-02-03T02:08:20;2.88;;;2.53;;
7108;SDS011;29079;41.930;25.558;2023-02-03T02:10:55;7.00;;;3.45;;
7108;SDS011;29079;41.930;25.558;2023-02-03T02:13:31;5.10;;;3.10;;
7108;SDS011;29079;41.930;25.558;2023-02-03T02:16:08;7.15;;;3.50;;
7108;SDS011;29079;41.930;25.558;2023-02-03T02:18:54;7.30;;;3.60;;
7108;SDS011;29079;41.930;25.558;2023-02-03T02:21:47;6.70;;;3.38;;
7108;SDS011;29079;41.930;25.558;2023-02-03T02:24:48;7.93;;;3.65;;
7108;SDS011;29079;41.930;25.558;2023-02-03T02:27:47;5.88;;;3.72;;
7108;SDS011;29079;41.930;25.558;2023-02-03T02:31:05;6.20;;;3.80;;
7108;SDS011;29079;41.930;25.558;2023-02-03T02:34:02;5.07;;;3.40;;
7108;SDS011;29079;41.930;25.558;2023-02-03T02:36:43;5.07;;;4.05;;
7108;SDS011;29079;41.930;25.558;2023-02-03T02:39:28;4.93;;;3.70;;
7108;SDS011;29079;41.930;25.558;2023-02-03T02:42:12;4.07;;;3.25;;
7108;SDS011;29079;41.930;25.558;2023-02-03T02:44:52;4.65;;;3.53;;
7108;SDS011;29079;41.930;25.558;2023-02-03T02:47:31;5.13;;;3.30;;
7108;SDS011;29079;41.930;25.558;2023-02-03T02:50:07;6.97;;;3.72;;
7108;SDS011;29079;41.930;25.558;2023-02-03T02:52:46;7.70;;;3.63;;
7108;SDS011;29079;41.930;25.558;2023-02-03T02:55:22;4.28;;;3.42;;
7108;SDS011;29079;41.930;25.558;2023-02-03T02:58:00;8.85;;;4.32;;
7108;SDS011;29079;41.930;25.558;2023-02-03T03:00:37;4.70;;;3.30;;
7108;SDS011;29079;41.930;25.558;2023-02-03T03:03:12;6.30;;;4.18;;
7108;SDS011;29079;41.930;25.558;2023-02-03T03:05:50;7.60;;;3.97;;
7108;SDS011;29079;41.930;25.558;2023-02-03T03:08:26;5.90;;;3.13;;
7108;SDS011;29079;41.930;25.558;2023-02-03T03:11:05;6.07;;;3.72;;
7108;SDS011;29079;41.930;25.558;2023-02-03T03:13:41;7.28;;;3.78;;
7108;SDS011;29079;41.930;25.558;2023-02-03T03:16:19;6.75;;;4.70;;
7108;SDS011;29079;41.930;25.558;2023-02-03T03:18:55;9.85;;;5.38;;
7108;SDS011;29079;41.930;25.558;2023-02-03T03:21:33;11.68;;;6.32;;
7108;SDS011;29079;41.930;25.558;2023-02-03T03:24:11;10.57;;;5.95;;
7108;SDS011;29079;41.930;25.558;2023-02-03T03:26:51;8.88;;;5.07;;
7108;SDS011;29079;41.930;25.558;2023-02-03T03:29:29;6.97;;;4.90;;
7108;SDS011;29079;41.930;25.558;2023-02-03T03:32:06;10.65;;;4.97;;
7108;SDS011;29079;41.930;25.558;2023-02-03T03:34:40;7.32;;;5.00;;
7108;SDS011;29079;41.930;25.558;2023-02-03T03:37:16;6.40;;;4.57;;
7108;SDS011;29079;41.930;25.558;2023-02-03T03:39:54;7.22;;;3.97;;
7108;SDS011;29079;41.930;25.558;2023-02-03T03:42:30;6.45;;;3.53;;
7108;SDS011;29079;41.930;25.558;2023-02-03T03:45:09;6.75;;;3.10;;
7108;SDS011;29079;41.930;25.558;2023-02-03T03:47:48;6.95;;;3.38;;
7108;SDS011;29079;41.930;25.558;2023-02-03T03:50:26;5.55;;;3.17;;
7108;SDS011;29079;41.930;25.558;2023-02-03T03:53:04;6.38;;;2.88;;
7108;SDS011;29079;41.930;25.558;2023-02-03T03:55:40;3.60;;;2.50;;
7108;SDS011;29079;41.930;25.558;2023-02-03T03:58:17;4.80;;;3.03;;
7108;SDS011;29079;41.930;25.558;2023-02-03T04:00:56;3.88;;;2.50;;
7108;SDS011;29079;41.930;25.558;2023-02-03T04:03:34;5.22;;;3.17;;
7108;SDS011;29079;41.930;25.558;2023-02-03T04:06:11;4.50;;;2.92;;
7108;SDS011;29079;41.930;25.558;2023-02-03T04:11:19;6.05;;;3.15;;
7108;SDS011;29079;41.930;25.558;2023-02-03T04:14:10;6.35;;;3.90;;
7108;SDS011;29079;41.930;25.558;2023-02-03T04:16:45;6.35;;;2.35;;
7108;SDS011;29079;41.930;25.558;2023-02-03T04:19:18;3.85;;;3.03;;
7108;SDS011;29079;41.930;25.558;2023-02-03T04:21:52;6.55;;;3.28;;
7108;SDS011;29079;41.930;25.558;2023-02-03T04:24:26;4.95;;;2.47;;
7108;SDS011;29079;41.930;25.558;2023-02-03T04:27:00;2.97;;;2.30;;
7108;SDS011;29079;41.930;25.558;2023-02-03T04:29:36;3.80;;;2.17;;
7108;SDS011;29079;41.930;25.558;2023-02-03T04:32:09;2.78;;;2.00;;
7108;SDS011;29079;41.930;25.558;2023-02-03T04:34:42;3.95;;;2.42;;
7108;SDS011;29079;41.930;25.558;2023-02-03T04:37:15;5.47;;;2.38;;
7108;SDS011;29079;41.930;25.558;2023-02-03T04:39:50;3.25;;;2.47;;
7108;SDS011;29079;41.930;25.558;2023-02-03T04:42:23;4.18;;;2.40;;
7108;SDS011;29079;41.930;25.558;2023-02-03T04:44:57;5.03;;;2.58;;
7108;SDS011;29079;41.930;25.558;2023-02-03T04:47:31;3.67;;;2.58;;
7108;SDS011;29079;41.930;25.558;2023-02-03T04:50:04;4.38;;;2.22;;
7108;SDS011;29079;41.930;25.558;2023-02-03T04:52:38;3.45;;;2.42;;
7108;SDS011;29079;41.930;25.558;2023-02-03T04:55:13;3.58;;;2.40;;
7108;SDS011;29079;41.930;25.558;2023-02-03T04:57:46;3.88;;;2.90;;
7108;SDS011;29079;41.930;25.558;2023-02-03T05:00:20;4.15;;;2.55;;
7108;SDS011;29079;41.930;25.558;2023-02-03T05:02:54;5.43;;;2.20;;
7108;SDS011;29079;41.930;25.558;2023-02-03T05:05:27;3.47;;;1.80;;
7108;SDS011;29079;41.930;25.558;2023-02-03T05:08:00;3.70;;;2.42;;
7108;SDS011;29079;41.930;25.558;2023-02-03T05:10:35;6.60;;;3.55;;
7108;SDS011;29079;41.930;25.558;2023-02-03T05:13:09;3.47;;;2.45;;
7108;SDS011;29079;41.930;25.558;2023-02-03T05:15:43;13.73;;;5.65;;
7108;SDS011;29079;41.930;25.558;2023-02-03T05:18:16;9.30;;;5.32;;
7108;SDS011;29079;41.930;25.558;2023-02-03T05:20:50;17.73;;;7.95;;
7108;SDS011;29079;41.930;25.558;2023-02-03T05:23:23;9.95;;;4.85;;
7108;SDS011;29079;41.930;25.558;2023-02-03T05:25:58;10.83;;;5.53;;
7108;SDS011;29079;41.930;25.558;2023-02-03T05:28:31;11.60;;;4.75;;
7108;SDS011;29079;41.930;25.558;2023-02-03T05:31:05;5.75;;;4.38;;
7108;SDS011;29079;41.930;25.558;2023-02-03T05:33:38;10.68;;;5.10;;
7108;SDS011;29079;41.930;25.558;2023-02-03T05:36:12;6.93;;;3.58;;
7108;SDS011;29079;41.930;25.558;2023-02-03T05:38:45;5.55;;;3.67;;
7108;SDS011;29079;41.930;25.558;2023-02-03T05:41:20;7.95;;;4.07;;
7108;SDS011;29079;41.930;25.558;2023-02-03T05:44:11;13.43;;;6.20;;
7108;SDS011;29079;41.930;25.558;2023-02-03T05:46:45;10.88;;;3.85;;
7108;SDS011;29079;41.930;25.558;2023-02-03T05:49:18;8.98;;;4.20;;
7108;SDS011;29079;41.930;25.558;2023-02-03T05:51:53;12.25;;;5.63;;
7108;SDS011;29079;41.930;25.558;2023-02-03T05:54:28;9.27;;;4.93;;
7108;SDS011;29079;41.930;25.558;2023-02-03T05:57:02;8.23;;;4.20;;
7108;SDS011;29079;41.930;25.558;2023-02-03T05:59:36;6.82;;;4.25;;
7108;SDS011;29079;41.930;25.558;2023-02-03T06:02:10;6.78;;;4.32;;
7108;SDS011;29079;41.930;25.558;2023-02-03T06:04:43;9.02;;;4.47;;
7108;SDS011;29079;41.930;25.558;2023-02-03T06:07:16;8.23;;;5.03;;
7108;SDS011;29079;41.930;25.558;2023-02-03T06:09:50;7.03;;;4.28;;
7108;SDS011;29079;41.930;25.558;2023-02-03T06:12:25;7.18;;;3.80;;
7108;SDS011;29079;41.930;25.558;2023-02-03T06:15:00;5.95;;;3.85;;
7108;SDS011;29079;41.930;25.558;2023-02-03T06:17:38;13.57;;;7.65;;
7108;SDS011;29079;41.930;25.558;2023-02-03T06:20:12;8.88;;;6.30;;
7108;SDS011;29079;41.930;25.558;2023-02-03T06:22:46;15.10;;;7.97;;
7108;SDS011;29079;41.930;25.558;2023-02-03T06:25:19;24.35;;;9.20;;
7108;SDS011;29079;41.930;25.558;2023-02-03T06:33:01;13.60;;;6.45;;
7108;SDS011;29079;41.930;25.558;2023-02-03T06:35:35;10.20;;;6.13;;
7108;SDS011;29079;41.930;25.558;2023-02-03T06:38:08;6.57;;;4.28;;
7108;SDS011;29079;41.930;25.558;2023-02-03T06:40:41;20.70;;;9.00;;
7108;SDS011;29079;41.930;25.558;2023-02-03T06:43:19;8.10;;;5.13;;
7108;SDS011;29079;41.930;25.558;2023-02-03T06:45:53;10.50;;;5.97;;
7108;SDS011;29079;41.930;25.558;2023-02-03T06:48:26;14.65;;;7.18;;
7108;SDS011;29079;41.930;25.558;2023-02-03T06:51:00;8.00;;;6.60;;
7108;SDS011;29079;41.930;25.558;2023-02-03T06:53:33;13.18;;;6.60;;
7108;SDS011;29079;41.930;25.558;2023-02-03T06:56:06;9.10;;;5.28;;
7108;SDS011;29079;41.930;25.558;2023-02-03T06:58:41;8.18;;;5.32;;
7108;SDS011;29079;41.930;25.558;2023-02-03T07:01:15;9.15;;;5.32;;
7108;SDS011;29079;41.930;25.558;2023-02-03T07:03:49;24.80;;;10.13;;
7108;SDS011;29079;41.930;25.558;2023-02-03T07:06:22;18.55;;;8.48;;
7108;SDS011;29079;41.930;25.558;2023-02-03T07:08:59;15.02;;;7.95;;
7108;SDS011;29079;41.930;25.558;2023-02-03T07:11:34;7.05;;;5.13;;
7108;SDS011;29079;41.930;25.558;2023-02-03T07:14:09;9.43;;;5.43;;
7108;SDS011;29079;41.930;25.558;2023-02-03T07:16:43;8.80;;;5.05;;
7108;SDS011;29079;41.930;25.558;2023-02-03T07:19:17;8.73;;;5.05;;
7108;SDS011;29079;41.930;25.558;2023-02-03T07:21:50;12.18;;;4.47;;
7108;SDS011;29079;41.930;25.558;2023-02-03T07:24:23;10.15;;;6.80;;
7108;SDS011;29079;41.930;25.558;2023-02-03T07:26:57;5.38;;;4.50;;
7108;SDS011;29079;41.930;25.558;2023-02-03T07:29:31;10.48;;;5.53;;
7108;SDS011;29079;41.930;25.558;2023-02-03T07:32:05;7.18;;;5.07;;
7108;SDS011;29079;41.930;25.558;2023-02-03T07:37:12;10.48;;;5.80;;
7108;SDS011;29079;41.930;25.558;2023-02-03T07:39:45;12.25;;;6.07;;
7108;SDS011;29079;41.930;25.558;2023-02-03T07:42:18;9.55;;;6.32;;
7108;SDS011;29079;41.930;25.558;2023-02-03T07:44:53;9.20;;;5.68;;
7108;SDS011;29079;41.930;25.558;2023-02-03T07:47:26;7.55;;;5.20;;
7108;SDS011;29079;41.930;25.558;2023-02-03T07:50:00;12.50;;;7.13;;
7108;SDS011;29079;41.930;25.558;2023-02-03T07:52:33;11.30;;;6.30;;
7108;SDS011;29079;41.930;25.558;2023-02-03T07:55:07;9.68;;;5.43;;
7108;SDS011;29079;41.930;25.558;2023-02-03T07:57:41;7.97;;;4.95;;
7108;SDS011;29079;41.930;25.558;2023-02-03T08:00:18;7.95;;;4.90;;
7108;SDS011;29079;41.930;25.558;2023-02-03T08:02:51;8.85;;;5.22;;
7108;SDS011;29079;41.930;25.558;2023-02-03T08:05:26;7.18;;;4.95;;
7108;SDS011;29079;41.930;25.558;2023-02-03T08:08:01;7.03;;;4.60;;
7108;SDS011;29079;41.930;25.558;2023-02-03T08:10:34;12.13;;;5.68;;
7108;SDS011;29079;41.930;25.558;2023-02-03T08:13:08;5.28;;;4.28;;
7108;SDS011;29079;41.930;25.558;2023-02-03T08:15:43;7.65;;;4.82;;
7108;SDS011;29079;41.930;25.558;2023-02-03T08:18:17;7.70;;;4.57;;
7108;SDS011;29079;41.930;25.558;2023-02-03T08:20:50;7.22;;;4.82;;
7108;SDS011;29079;41.930;25.558;2023-02-03T08:23:24;5.18;;;3.88;;
7108;SDS011;29079;41.930;25.558;2023-02-03T08:25:57;5.00;;;3.80;;
7108;SDS011;29079;41.930;25.558;2023-02-03T08:28:31;5.30;;;4.28;;
7108;SDS011;29079;41.930;25.558;2023-02-03T08:31:09;7.80;;;4.93;;
7108;SDS011;29079;41.930;25.558;2023-02-03T08:33:43;7.75;;;4.95;;
7108;SDS011;29079;41.930;25.558;2023-02-03T08:36:17;7.38;;;4.97;;
7108;SDS011;29079;41.930;25.558;2023-02-03T08:38:51;8.05;;;5.00;;
7108;SDS011;29079;41.930;25.558;2023-02-03T08:41:24;7.93;;;4.95;;
7108;SDS011;29079;41.930;25.558;2023-02-03T08:43:57;5.25;;;4.18;;
7108;SDS011;29079;41.930;25.558;2023-02-03T08:46:32;6.18;;;4.47;;
7108;SDS011;29079;41.930;25.558;2023-02-03T08:49:07;10.80;;;5.25;;
7108;SDS011;29079;41.930;25.558;2023-02-03T08:51:40;12.48;;;5.93;;
7108;SDS011;29079;41.930;25.558;2023-02-03T08:54:15;9.55;;;6.32;;
7108;SDS011;29079;41.930;25.558;2023-02-03T08:56:48;17.80;;;8.77;;
7108;SDS011;29079;41.930;25.558;2023-02-03T08:59:22;6.47;;;4.13;;
7108;SDS011;29079;41.930;25.558;2023-02-03T09:01:57;9.32;;;5.28;;
7108;SDS011;29079;41.930;25.558;2023-02-03T09:04:31;8.60;;;5.15;;
7108;SDS011;29079;41.930;25.558;2023-02-03T09:07:05;5.05;;;4.63;;
7108;SDS011;29079;41.930;25.558;2023-02-03T09:09:39;8.65;;;4.22;;
7108;SDS011;29079;41.930;25.558;2023-02-03T09:12:13;7.50;;;4.35;;
7108;SDS011;29079;41.930;25.558;2023-02-03T09:14:47;5.45;;;4.22;;
7108;SDS011;29079;41.930;25.558;2023-02-03T09:17:23;5.70;;;4.05;;
7108;SDS011;29079;41.930;25.558;2023-02-03T09:19:56;7.28;;;4.40;;
7108;SDS011;29079;41.930;25.558;2023-02-03T09:22:29;5.57;;;4.07;;
7108;SDS011;29079;41.930;25.558;2023-02-03T09:25:03;7.65;;;3.80;;
7108;SDS011;29079;41.930;25.558;2023-02-03T09:27:37;4.90;;;4.50;;
7108;SDS011;29079;41.930;25.558;2023-02-03T09:30:11;6.75;;;4.03;;
7108;SDS011;29079;41.930;25.558;2023-02-03T09:32:47;7.10;;;4.38;;
7108;SDS011;29079;41.930;25.558;2023-02-03T09:35:25;4.40;;;3.30;;
7108;SDS011;29079;41.930;25.558;2023-02-03T09:38:00;5.40;;;3.47;;
7108;SDS011;29079;41.930;25.558;2023-02-03T09:40:33;4.75;;;3.38;;
7108;SDS011;29079;41.930;25.558;2023-02-03T09:43:14;5.05;;;3.47;;
7108;SDS011;29079;41.930;25.558;2023-02-03T09:46:02;6.43;;;4.07;;
7108;SDS011;29079;41.930;25.558;2023-02-03T09:48:41;9.38;;;5.22;;
7108;SDS011;29079;41.930;25.558;2023-02-03T09:51:19;14.98;;;8.68;;
7108;SDS011;29079;41.930;25.558;2023-02-03T09:53:56;14.80;;;7.45;;
7108;SDS011;29079;41.930;25.558;2023-02-03T09:56:33;8.65;;;5.95;;
7108;SDS011;29079;41.930;25.558;2023-02-03T09:59:09;8.18;;;5.13;;
7108;SDS011;29079;41.930;25.558;2023-02-03T10:01:44;7.90;;;5.18;;
7108;SDS011;29079;41.930;25.558;2023-02-03T10:04:27;4.10;;;3.70;;
7108;SDS011;29079;41.930;25.558;2023-02-03T10:07:09;9.07;;;3.90;;
7108;SDS011;29079;41.930;25.558;2023-02-03T10:09:52;4.15;;;3.45;;
7108;SDS011;29079;41.930;25.558;2023-02-03T10:12:46;11.00;;;4.43;;
7108;SDS011;29079;41.930;25.558;2023-02-03T10:18:37;8.00;;;5.93;;
7108;SDS011;29079;41.930;25.558;2023-02-03T10:21:18;4.00;;;3.33;;
7108;SDS011;29079;41.930;25.558;2023-02-03T10:24:00;4.25;;;3.55;;
7108;SDS011;29079;41.930;25.558;2023-02-03T10:26:38;5.18;;;3.60;;
7108;SDS011;29079;41.930;25.558;2023-02-03T10:29:17;5.03;;;3.75;;
7108;SDS011;29079;41.930;25.558;2023-02-03T10:31:53;5.38;;;3.00;;
7108;SDS011;29079;41.930;25.558;2023-02-03T10:34:29;3.78;;;3.40;;
7108;SDS011;29079;41.930;25.558;2023-02-03T10:37:05;4.10;;;3.30;;
7108;SDS011;29079;41.930;25.558;2023-02-03T10:39:50;4.63;;;3.33;;
7108;SDS011;29079;41.930;25.558;2023-02-03T10:42:24;3.08;;;2.60;;
7108;SDS011;29079;41.930;25.558;2023-02-03T10:45:20;5.72;;;2.97;;
7108;SDS011;29079;41.930;25.558;2023-02-03T10:47:53;3.38;;;2.50;;
7108;SDS011;29079;41.930;25.558;2023-02-03T10:50:27;4.72;;;2.67;;
7108;SDS011;29079;41.930;25.558;2023-02-03T10:53:20;5.55;;;3.10;;
7108;SDS011;29079;41.930;25.558;2023-02-03T10:56:02;6.28;;;3.92;;
7108;SDS011;29079;41.930;25.558;2023-02-03T10:58:45;7.50;;;5.00;;
7108;SDS011;29079;41.930;25.558;2023-02-03T11:01:20;5.32;;;3.20;;
7108;SDS011;29079;41.930;25.558;2023-02-03T11:03:57;4.53;;;3.55;;
7108;SDS011;29079;41.930;25.558;2023-02-03T11:06:32;5.28;;;3.28;;
7108;SDS011;29079;41.930;25.558;2023-02-03T11:09:20;5.20;;;3.33;;
7108;SDS011;29079;41.930;25.558;2023-02-03T11:12:09;7.03;;;3.03;;
7108;SDS011;29079;41.930;25.558;2023-02-03T11:14:46;4.47;;;2.67;;
7108;SDS011;29079;41.930;25.558;2023-02-03T11:17:21;5.57;;;3.58;;
7108;SDS011;29079;41.930;25.558;2023-02-03T11:20:00;5.13;;;3.47;;
7108;SDS011;29079;41.930;25.558;2023-02-03T11:22:45;6.68;;;4.05;;
7108;SDS011;29079;41.930;25.558;2023-02-03T11:25:23;5.15;;;3.63;;
7108;SDS011;29079;41.930;25.558;2023-02-03T11:28:02;5.88;;;3.10;;
7108;SDS011;29079;41.930;25.558;2023-02-03T11:30:38;3.10;;;2.72;;
7108;SDS011;29079;41.930;25.558;2023-02-03T11:33:14;7.97;;;3.60;;
7108;SDS011;29079;41.930;25.558;2023-02-03T11:35:52;4.55;;;2.70;;
7108;SDS011;29079;41.930;25.558;2023-02-03T11:38:28;8.45;;;4.05;;
7108;SDS011;29079;41.930;25.558;2023-02-03T11:41:04;5.05;;;2.88;;
7108;SDS011;29079;41.930;25.558;2023-02-03T11:43:38;4.68;;;2.80;;
7108;SDS011;29079;41.930;25.558;2023-02-03T11:46:11;6.15;;;3.28;;
7108;SDS011;29079;41.930;25.558;2023-02-03T11:48:50;4.53;;;3.25;;
7108;SDS011;29079;41.930;25.558;2023-02-03T11:51:36;4.50;;;3.22;;
7108;SDS011;29079;41.930;25.558;2023-02-03T11:54:19;6.95;;;3.55;;
7108;SDS011;29079;41.930;25.558;2023-02-03T11:57:06;5.82;;;3.58;;
7108;SDS011;29079;41.930;25.558;2023-02-03T12:00:02;16.48;;;4.30;;
7108;SDS011;29079;41.930;25.558;2023-02-03T12:02:58;13.68;;;4.55;;
7108;SDS011;29079;41.930;25.558;2023-02-03T12:06:10;4.22;;;3.22;;
7108;SDS011;29079;41.930;25.558;2023-02-03T12:09:03;4.68;;;3.63;;
7108;SDS011;29079;41.930;25.558;2023-02-03T12:11:57;4.28;;;3.60;;
7108;SDS011;29079;41.930;25.558;2023-02-03T12:17:31;5.90;;;3.42;;
7108;SDS011;29079;41.930;25.558;2023-02-03T12:20:26;5.25;;;3.70;;
7108;SDS011;29079;41.930;25.558;2023-02-03T12:23:13;6.78;;;3.25;;
7108;SDS011;29079;41.930;25.558;2023-02-03T12:25:58;3.42;;;2.70;;
7108;SDS011;29079;41.930;25.558;2023-02-03T12:28:53;4.32;;;2.83;;
7108;SDS011;29079;41.930;25.558;2023-02-03T12:31:35;9.25;;;4.68;;
7108;SDS011;29079;41.930;25.558;2023-02-03T12:34:16;4.22;;;3.80;;
7108;SDS011;29079;41.930;25.558;2023-02-03T12:36:57;3.38;;;2.83;;
7108;SDS011;29079;41.930;25.558;2023-02-03T12:39:38;5.53;;;3.08;;
7108;SDS011;29079;41.930;25.558;2023-02-03T12:42:17;4.00;;;2.67;;
7108;SDS011;29079;41.930;25.558;2023-02-03T12:44:56;2.97;;;2.50;;
7108;SDS011;29079;41.930;25.558;2023-02-03T12:47:36;5.03;;;2.70;;
7108;SDS011;29079;41.930;25.558;2023-02-03T12:50:16;5.55;;;2.60;;
7108;SDS011;29079;41.930;25.558;2023-02-03T12:52:53;4.43;;;2.45;;
7108;SDS011;29079;41.930;25.558;2023-02-03T12:55:33;4.05;;;2.90;;
7108;SDS011;29079;41.930;25.558;2023-02-03T12:58:12;4.72;;;4.25;;
7108;SDS011;29079;41.930;25.558;2023-02-03T13:00:53;4.13;;;2.85;;
7108;SDS011;29079;41.930;25.558;2023-02-03T13:03:34;3.97;;;2.90;;
7108;SDS011;29079;41.930;25.558;2023-02-03T13:06:15;3.97;;;3.45;;
7108;SDS011;29079;41.930;25.558;2023-02-03T13:08:55;6.28;;;4.38;;
7108;SDS011;29079;41.930;25.558;2023-02-03T13:11:34;5.90;;;3.55;;
7108;SDS011;29079;41.930;25.558;2023-02-03T13:14:13;4.00;;;3.00;;
7108;SDS011;29079;41.930;25.558;2023-02-03T13:16:53;7.45;;;4.05;;
7108;SDS011;29079;41.930;25.558;2023-02-03T13:19:35;4.80;;;3.90;;
7108;SDS011;29079;41.930;25.558;2023-02-03T13:22:22;4.75;;;3.80;;
7108;SDS011;29079;41.930;25.558;2023-02-03T13:27:38;5.15;;;3.45;;
7108;SDS011;29079;41.930;25.558;2023-02-03T13:30:21;3.30;;;3.00;;
7108;SDS011;29079;41.930;25.558;2023-02-03T13:33:20;4.40;;;3.05;;
7108;SDS011;29079;41.930;25.558;2023-02-03T13:36:19;4.82;;;3.28;;
7108;SDS011;29079;41.930;25.558;2023-02-03T13:39:19;5.18;;;3.53;;
7108;SDS011;29079;41.930;25.558;2023-02-03T13:42:10;7.22;;;3.60;;
7108;SDS011;29079;41.930;25.558;2023-02-03T13:44:52;5.75;;;3.30;;
7108;SDS011;29079;41.930;25.558;2023-02-03T13:47:29;8.98;;;3.95;;
7108;SDS011;29079;41.930;25.558;2023-02-03T13:50:04;4.32;;;3.28;;
7108;SDS011;29079;41.930;25.558;2023-02-03T13:52:53;5.45;;;3.38;;
7108;SDS011;29079;41.930;25.558;2023-02-03T13:55:32;4.78;;;3.63;;
7108;SDS011;29079;41.930;25.558;2023-02-03T13:58:17;5.70;;;4.28;;
7108;SDS011;29079;41.930;25.558;2023-02-03T14:01:00;4.30;;;3.45;;
7108;SDS011;29079;41.930;25.558;2023-02-03T14:03:56;6.55;;;3.88;;
7108;SDS011;29079;41.930;25.558;2023-02-03T14:09:46;5.93;;;5.00;;
7108;SDS011;29079;41.930;25.558;2023-02-03T14:12:30;8.18;;;4.60;;
7108;SDS011;29079;41.930;25.558;2023-02-03T14:15:22;4.47;;;3.30;;
7108;SDS011;29079;41.930;25.558;2023-02-03T14:18:04;4.93;;;3.45;;
7108;SDS011;29079;41.930;25.558;2023-02-03T14:23:48;5.38;;;3.60;;
7108;SDS011;29079;41.930;25.558;2023-02-03T14:26:37;7.30;;;4.22;;
7108;SDS011;29079;41.930;25.558;2023-02-03T14:29:22;7.78;;;6.18;;
7108;SDS011;29079;41.930;25.558;2023-02-03T14:31:58;6.72;;;3.85;;
7108;SDS011;29079;41.930;25.558;2023-02-03T14:34:33;7.63;;;4.80;;
7108;SDS011;29079;41.930;25.558;2023-02-03T14:37:19;9.50;;;3.33;;
7108;SDS011;29079;41.930;25.558;2023-02-03T14:40:02;5.32;;;4.07;;
7108;SDS011;29079;41.930;25.558;2023-02-03T14:43:12;4.13;;;3.47;;
7108;SDS011;29079;41.930;25.558;2023-02-03T14:46:01;5.55;;;3.85;;
7108;SDS011;29079;41.930;25.558;2023-02-03T14:49:03;6.43;;;4.60;;
7108;SDS011;29079;41.930;25.558;2023-02-03T14:51:59;7.47;;;4.10;;
7108;SDS011;29079;41.930;25.558;2023-02-03T14:54:49;7.43;;;4.30;;
7108;SDS011;29079;41.930;25.558;2023-02-03T14:57:37;5.22;;;3.85;;
7108;SDS011;29079;41.930;25.558;2023-02-03T15:00:27;6.68;;;4.20;;
7108;SDS011;29079;41.930;25.558;2023-02-03T15:03:15;7.85;;;4.65;;
7108;SDS011;29079;41.930;25.558;2023-02-03T15:05:54;9.27;;;5.22;;
7108;SDS011;29079;41.930;25.558;2023-02-03T15:08:36;6.82;;;5.20;;
7108;SDS011;29079;41.930;25.558;2023-02-03T15:13:48;9.45;;;4.75;;
7108;SDS011;29079;41.930;25.558;2023-02-03T15:16:24;7.28;;;4.93;;
7108;SDS011;29079;41.930;25.558;2023-02-03T15:18:59;10.48;;;5.60;;
7108;SDS011;29079;41.930;25.558;2023-02-03T15:21:40;13.40;;;6.93;;
7108;SDS011;29079;41.930;25.558;2023-02-03T15:24:15;15.23;;;7.50;;
7108;SDS011;29079;41.930;25.558;2023-02-03T15:26:53;15.15;;;7.03;;
7108;SDS011;29079;41.930;25.558;2023-02-03T15:29:28;14.23;;;6.95;;
7108;SDS011;29079;41.930;25.558;2023-02-03T15:32:05;19.50;;;8.20;;
7108;SDS011;29079;41.930;25.558;2023-02-03T15:34:45;16.58;;;8.30;;
7108;SDS011;29079;41.930;25.558;2023-02-03T15:37:21;14.75;;;9.05;;
7108;SDS011;29079;41.930;25.558;2023-02-03T15:40:00;14.73;;;8.20;;
7108;SDS011;29079;41.930;25.558;2023-02-03T15:42:38;16.63;;;9.55;;
7108;SDS011;29079;41.930;25.558;2023-02-03T15:45:25;16.92;;;9.75;;
7108;SDS011;29079;41.930;25.558;2023-02-03T15:48:03;20.55;;;9.68;;
7108;SDS011;29079;41.930;25.558;2023-02-03T15:50:41;18.33;;;9.98;;
7108;SDS011;29079;41.930;25.558;2023-02-03T15:53:18;20.52;;;11.50;;
7108;SDS011;29079;41.930;25.558;2023-02-03T15:56:00;17.15;;;11.80;;
7108;SDS011;29079;41.930;25.558;2023-02-03T15:58:38;27.58;;;13.13;;
7108;SDS011;29079;41.930;25.558;2023-02-03T16:01:18;24.30;;;11.73;;
7108;SDS011;29079;41.930;25.558;2023-02-03T16:03:58;19.50;;;11.60;;
7108;SDS011;29079;41.930;25.558;2023-02-03T16:06:32;26.58;;;13.68;;
7108;SDS011;29079;41.930;25.558;2023-02-03T16:09:24;40.90;;;16.73;;
7108;SDS011;29079;41.930;25.558;2023-02-03T16:12:04;57.45;;;24.85;;
7108;SDS011;29079;41.930;25.558;2023-02-03T16:14:47;48.70;;;24.10;;
7108;SDS011;29079;41.930;25.558;2023-02-03T16:17:23;69.15;;;24.85;;
7108;SDS011;29079;41.930;25.558;2023-02-03T16:20:21;46.63;;;21.42;;
7108;SDS011;29079;41.930;25.558;2023-02-03T16:23:01;56.00;;;22.42;;
7108;SDS011;29079;41.930;25.558;2023-02-03T16:25:36;43.60;;;20.75;;
7108;SDS011;29079;41.930;25.558;2023-02-03T16:28:14;36.28;;;17.52;;